Pinot Noir Commodore — WCZ7643 — position and weather

sailwx.info

Track history (hours):
 
Tides and Currents Weather Stations Pressure Air Temp Water Temp Dewpoint Dewpoint Depression Visibility Wind Speed Wind Dir Waves Ship Positions

Pinot Noir Commodore

Owner: PROESCHER, WARD H, Alameda, CA. More information available from US FCC via Universal Licensing System and Coast Guard Vessel Documentation Center.

Last reported at 2017-Nov-14 05:49 UTC. Time now 2017-Nov-20 02:15 UTC.
Position N 37°47' W 122°17'.

Length 25 m; draft 1 m.

Type: Passenger vessel. MMSI: 367437910.

Date/timePositionNaut miles runAvg speedWind from/ knotsBaromVisibWave heightAir tempDewpointWater temp
2017-Nov-14 05:49N 37°47' W 122°17'1 1.8
2017-Nov-14 05:31N 37°48' W 122°17'3 6.3
2017-Nov-14 05:00N 37°48' W 122°21'4 7.7
2017-Nov-14 04:30N 37°50' W 122°26'3 6.6
2017-Nov-14 04:00N 37°48' W 122°22'4 7.3
2017-Nov-14 03:31N 37°47' W 122°18'1 1.9
2017-Nov-14 03:00N 37°47' W 122°17'0 0.0
2017-Nov-14 02:30N 37°47' W 122°17'0 0.0
2017-Nov-13 21:44N 37°47' W 122°17'0 0.0
2017-Nov-12 07:01N 37°47' W 122°17'0 0.0
2017-Nov-12 07:00N 37°47' W 122°17'1 1.3
2017-Nov-12 06:31N 37°48' W 122°17'3 5.9
2017-Nov-12 06:01N 37°48' W 122°21'2 4.9
2017-Nov-12 05:30N 37°49' W 122°24'2 5.0
2017-Nov-12 05:00N 37°50' W 122°27'1 1.7
2017-Nov-12 04:30N 37°49' W 122°27'4 7.8
2017-Nov-12 04:01N 37°47' W 122°23'3 5.1
2017-Nov-12 03:31N 37°48' W 122°20'3 5.5
2017-Nov-12 03:00N 37°47' W 122°17'0 0.0
2017-Nov-12 02:30N 37°47' W 122°17'0 0.0
2017-Nov-12 02:01N 37°47' W 122°17'0 0.0
2017-Nov-11 21:23N 37°47' W 122°17'0 0.0
2017-Nov-11 21:00N 37°47' W 122°17'  
2017-Nov-08 02:58N 37°47' W 122°17'1 2.4
2017-Nov-08 02:30N 37°48' W 122°18'3 6.9
2017-Nov-08 02:00N 37°48' W 122°22'2 4.3
2017-Nov-08 01:31N 37°49' W 122°25'1 2.6
2017-Nov-08 01:01N 37°49' W 122°26'4 7.5
2017-Nov-08 00:31N 37°48' W 122°22'4 7.0
2017-Nov-08 00:01N 37°48' W 122°17'1 1.3
2017-Nov-07 23:30N 37°47' W 122°17'0 0.0
2017-Nov-07 20:09N 37°47' W 122°17'0 0.0
2017-Nov-07 20:00N 37°47' W 122°17'0 0.0
2017-Nov-07 19:30N 37°47' W 122°17'0 0.0
2017-Nov-07 19:00N 37°47' W 122°17'  
2017-Nov-05 05:47N 37°47' W 122°17'0 1.6
2017-Nov-05 05:30N 37°48' W 122°17'2 3.8
2017-Nov-05 05:00N 37°48' W 122°20'3 6.1
2017-Nov-05 04:30N 37°48' W 122°23'3 6.3
2017-Nov-05 04:00N 37°49' W 122°27'1 2.4
2017-Nov-05 03:30N 37°49' W 122°26'3 6.2
2017-Nov-05 03:01N 37°47' W 122°23'3 6.0
2017-Nov-05 02:31N 37°48' W 122°20'2 4.8
2017-Nov-05 02:00N 37°47' W 122°17'0 0.0
2017-Nov-05 01:30N 37°47' W 122°17'0 0.0
2017-Nov-05 01:00N 37°47' W 122°17'0 0.0
2017-Nov-04 19:20N 37°47' W 122°17'0 0.0
2017-Nov-04 19:01N 37°47' W 122°17'0 0.0
2017-Nov-04 18:31N 37°47' W 122°17'  
Track history (hours):
 
Tides and Currents Weather Stations Pressure Air Temp Water Temp Dewpoint Dewpoint Depression Visibility Wind Speed Wind Dir Waves Ship Positions

Pinot Noir Commodore

Owner: PROESCHER, WARD H, Alameda, CA. More information available from US FCC via Universal Licensing System and Coast Guard Vessel Documentation Center.

Last reported at 2017-Nov-14 05:49 UTC. Time now 2017-Nov-20 02:15 UTC.
Position N 37°47' W 122°17'.

Length 25 m; draft 1 m.

Type: Passenger vessel. MMSI: 367437910.

Date/timePositionNaut miles runAvg speedWind from/ knotsBaromVisibWave heightAir tempDewpointWater temp
2017-Nov-14 05:49N 37°47' W 122°17'1 1.8
2017-Nov-14 05:31N 37°48' W 122°17'3 6.3
2017-Nov-14 05:00N 37°48' W 122°21'4 7.7
2017-Nov-14 04:30N 37°50' W 122°26'3 6.6
2017-Nov-14 04:00N 37°48' W 122°22'4 7.3
2017-Nov-14 03:31N 37°47' W 122°18'1 1.9
2017-Nov-14 03:00N 37°47' W 122°17'0 0.0
2017-Nov-14 02:30N 37°47' W 122°17'0 0.0
2017-Nov-13 21:44N 37°47' W 122°17'0 0.0
2017-Nov-12 07:01N 37°47' W 122°17'0 0.0
2017-Nov-12 07:00N 37°47' W 122°17'1 1.3
2017-Nov-12 06:31N 37°48' W 122°17'3 5.9
2017-Nov-12 06:01N 37°48' W 122°21'2 4.9
2017-Nov-12 05:30N 37°49' W 122°24'2 5.0
2017-Nov-12 05:00N 37°50' W 122°27'1 1.7
2017-Nov-12 04:30N 37°49' W 122°27'4 7.8
2017-Nov-12 04:01N 37°47' W 122°23'3 5.1
2017-Nov-12 03:31N 37°48' W 122°20'3 5.5
2017-Nov-12 03:00N 37°47' W 122°17'0 0.0
2017-Nov-12 02:30N 37°47' W 122°17'0 0.0
2017-Nov-12 02:01N 37°47' W 122°17'0 0.0
2017-Nov-11 21:23N 37°47' W 122°17'0 0.0
2017-Nov-11 21:00N 37°47' W 122°17'  
2017-Nov-08 02:58N 37°47' W 122°17'1 2.4
2017-Nov-08 02:30N 37°48' W 122°18'3 6.9
2017-Nov-08 02:00N 37°48' W 122°22'2 4.3
2017-Nov-08 01:31N 37°49' W 122°25'1 2.6
2017-Nov-08 01:01N 37°49' W 122°26'4 7.5
2017-Nov-08 00:31N 37°48' W 122°22'4 7.0
2017-Nov-08 00:01N 37°48' W 122°17'1 1.3
2017-Nov-07 23:30N 37°47' W 122°17'0 0.0
2017-Nov-07 20:09N 37°47' W 122°17'0 0.0
2017-Nov-07 20:00N 37°47' W 122°17'0 0.0
2017-Nov-07 19:30N 37°47' W 122°17'0 0.0
2017-Nov-07 19:00N 37°47' W 122°17'  
2017-Nov-05 05:47N 37°47' W 122°17'0 1.6
2017-Nov-05 05:30N 37°48' W 122°17'2 3.8
2017-Nov-05 05:00N 37°48' W 122°20'3 6.1
2017-Nov-05 04:30N 37°48' W 122°23'3 6.3
2017-Nov-05 04:00N 37°49' W 122°27'1 2.4
2017-Nov-05 03:30N 37°49' W 122°26'3 6.2
2017-Nov-05 03:01N 37°47' W 122°23'3 6.0
2017-Nov-05 02:31N 37°48' W 122°20'2 4.8
2017-Nov-05 02:00N 37°47' W 122°17'0 0.0
2017-Nov-05 01:30N 37°47' W 122°17'0 0.0
2017-Nov-05 01:00N 37°47' W 122°17'0 0.0
2017-Nov-04 19:20N 37°47' W 122°17'0 0.0
2017-Nov-04 19:01N 37°47' W 122°17'0 0.0
2017-Nov-04 18:31N 37°47' W 122°17'  

Dump ship's entire track history